Time;durP1;ratioP1;P1;durP2;ratioP2;P2;SDS_P1;SDS_P2;PMS_P1;PMS_P2;Temp;Humidity;BMP_temperature;BMP_pressure;BME280_temperature;BME280_humidity;BME280_pressure;Samples;Min_cycle;Max_cycle;Signal;HPM_P1;HPM_P2
2022/04/06 00:00:12;;;;;;;19.58;9.57;;;;;;;3.42;98.78;98411.47;5053485;28;20044;-78
2022/04/06 00:02:59;;;;;;;18.92;9.45;;;;;;;3.52;98.55;98412.75;5053577;28;20141;-78
2022/04/06 00:05:27;;;;;;;16.90;8.82;;;;;;;3.45;99.02;98416.66;5053704;28;20056;-78
2022/04/06 00:07:54;;;;;;;16.70;8.85;;;;;;;3.50;99.59;98416.44;5053831;28;20045;-78
2022/04/06 00:10:24;;;;;;;19.75;9.63;;;;;;;3.52;99.11;98414.56;5053353;28;20052;-78
2022/04/06 00:12:51;;;;;;;16.85;9.05;;;;;;;3.48;99.47;98411.16;5053644;28;20381;-78
2022/04/06 00:15:19;;;;;;;17.63;8.77;;;;;;;3.42;100.00;98398.97;5053314;28;20103;-78
2022/04/06 00:17:47;;;;;;;17.27;8.48;;;;;;;3.45;100.00;98395.31;5053498;28;20052;-78
2022/04/06 00:20:15;;;;;;;18.30;8.93;;;;;;;3.55;100.00;98395.72;5053510;28;20120;-78
2022/04/06 00:22:42;;;;;;;16.98;9.27;;;;;;;3.60;100.00;98383.00;5053554;28;20120;-78
2022/04/06 00:25:10;;;;;;;16.67;8.73;;;;;;;3.58;100.00;98385.72;5053143;28;20049;-78
2022/04/06 00:27:39;;;;;;;17.27;9.40;;;;;;;3.68;100.00;98390.63;5053146;28;20067;-78
2022/04/06 00:30:07;;;;;;;19.23;9.43;;;;;;;3.69;100.00;98382.50;5052671;28;20048;-78
2022/04/06 00:32:35;;;;;;;19.27;10.15;;;;;;;3.43;100.00;98375.84;5032892;28;20045;-78
2022/04/06 00:37:47;;;;;;;16.52;9.20;;;;;;;3.50;100.00;98371.06;5033765;28;20091;-77
2022/04/06 00:40:15;;;;;;;17.88;10.15;;;;;;;3.61;100.00;98374.88;5034310;28;20042;-78
2022/04/06 00:42:43;;;;;;;28.13;13.80;;;;;;;3.51;100.00;98372.78;5032224;28;20050;-78
2022/04/06 00:45:11;;;;;;;26.50;13.13;;;;;;;3.60;100.00;98372.31;5032745;28;20056;-77
2022/04/06 00:47:38;;;;;;;24.73;12.45;;;;;;;3.60;100.00;98374.97;5033269;28;20484;-78
2022/04/06 00:50:07;;;;;;;26.00;12.65;;;;;;;3.54;100.00;98368.13;5033191;28;20045;-78
2022/04/06 00:52:35;;;;;;;22.23;11.38;;;;;;;3.57;100.00;98377.81;5032979;28;20053;-78
2022/04/06 00:55:03;;;;;;;21.50;11.48;;;;;;;3.60;100.00;98373.16;5033100;28;20045;-78
2022/04/06 00:57:31;;;;;;;25.77;12.20;;;;;;;3.60;100.00;98378.50;5032427;28;20485;-78
2022/04/06 01:00:00;;;;;;;23.38;11.77;;;;;;;3.67;100.00;98363.03;5032973;28;20049;-78
2022/04/06 01:02:28;;;;;;;26.95;12.85;;;;;;;3.69;100.00;98371.84;5032866;28;20053;-77
2022/04/06 01:04:55;;;;;;;26.25;12.18;;;;;;;3.66;100.00;98361.31;5033108;28;20049;-78
2022/04/06 01:07:23;;;;;;;26.58;13.20;;;;;;;3.68;100.00;98370.09;5032936;28;20056;-78
2022/04/06 01:09:51;;;;;;;25.00;12.15;;;;;;;3.68;100.00;98369.25;5033059;28;20124;-78
2022/04/06 01:12:19;;;;;;;27.88;12.43;;;;;;;3.65;100.00;98362.25;5032419;28;20046;-78
2022/04/06 01:14:46;;;;;;;31.17;13.90;;;;;;;3.67;100.00;98363.03;5032992;28;20049;-78
2022/04/06 01:17:15;;;;;;;25.42;12.80;;;;;;;3.62;100.00;98371.28;5032982;28;20111;-78
2022/04/06 01:19:45;;;;;;;29.00;12.98;;;;;;;3.65;100.00;98372.06;5032619;28;20492;-78
2022/04/06 01:22:15;;;;;;;24.23;12.77;;;;;;;3.65;100.00;98380.94;5033041;28;20415;-77
2022/04/06 01:24:44;;;;;;;28.63;13.40;;;;;;;3.71;100.00;98366.44;5037933;28;20045;-78
2022/04/06 01:27:12;;;;;;;23.65;12.55;;;;;;;3.63;100.00;98372.16;5035887;28;20049;-78
2022/04/06 01:29:40;;;;;;;26.17;12.55;;;;;;;3.55;100.00;98369.00;5036584;28;20046;-78
2022/04/06 01:32:12;;;;;;;26.70;12.50;;;;;;;3.68;100.00;98370.09;5036499;28;20381;-78
2022/04/06 01:34:40;;;;;;;25.25;11.63;;;;;;;3.67;100.00;98362.16;5036772;28;20484;-78
2022/04/06 01:37:09;;;;;;;28.90;12.27;;;;;;;3.66;100.00;98355.97;5036698;28;20092;-78
2022/04/06 01:39:40;;;;;;;31.77;12.82;;;;;;;3.69;100.00;98345.13;5036309;28;20049;-78
2022/04/06 01:42:09;;;;;;;23.63;10.75;;;;;;;3.61;100.00;98342.84;5037345;28;20130;-78
2022/04/06 01:44:37;;;;;;;23.80;10.75;;;;;;;3.61;100.00;98350.84;5036274;28;20061;-78
2022/04/06 01:47:06;;;;;;;22.17;9.90;;;;;;;3.50;100.00;98344.38;5036471;28;20050;-78
2022/04/06 01:52:19;;;;;;;16.73;8.35;;;;;;;3.60;100.00;98341.13;5037073;28;20049;-78
2022/04/06 01:54:49;;;;;;;18.65;9.23;;;;;;;3.58;100.00;98340.34;5036376;28;20041;-78
2022/04/06 01:57:18;;;;;;;18.15;9.20;;;;;;;3.48;100.00;98337.28;5035879;28;20049;-78
2022/04/06 01:59:45;;;;;;;17.95;8.57;;;;;;;3.67;100.00;98328.31;5036099;28;20100;-79
2022/04/06 02:02:15;;;;;;;19.10;8.98;;;;;;;3.55;100.00;98328.97;5036290;28;20045;-78
2022/04/06 02:04:43;;;;;;;17.60;8.68;;;;;;;3.62;100.00;98327.69;5036199;28;20046;-78
2022/04/06 02:07:11;;;;;;;19.13;8.90;;;;;;;3.62;100.00;98327.69;5036069;28;20041;-78
2022/04/06 02:09:39;;;;;;;17.83;8.25;;;;;;;3.56;100.00;98318.19;5054578;28;20068;-79
2022/04/06 02:12:09;;;;;;;19.13;9.02;;;;;;;3.56;100.00;98328.88;5055696;28;20047;-78
2022/04/06 02:14:37;;;;;;;19.30;8.45;;;;;;;3.55;100.00;98326.28;5055519;28;20491;-77
2022/04/06 02:17:07;;;;;;;16.48;8.13;;;;;;;3.59;100.00;98330.53;5055430;28;20045;-78
2022/04/06 02:19:36;;;;;;;22.27;10.10;;;;;;;3.68;100.00;98323.84;5039487;28;20069;-78
2022/04/06 02:22:04;;;;;;;19.80;9.27;;;;;;;3.69;100.00;98322.91;5035691;28;20049;-78
2022/04/06 02:24:32;;;;;;;21.17;9.05;;;;;;;3.56;100.00;98334.22;5035438;28;20041;-78
2022/04/06 02:26:59;;;;;;;17.35;8.57;;;;;;;3.55;100.00;98321.81;5035691;28;20127;-78
2022/04/06 02:29:29;;;;;;;16.92;8.80;;;;;;;3.61;100.00;98331.31;5035639;28;20412;-78
2022/04/06 02:31:56;;;;;;;17.15;8.70;;;;;;;3.61;100.00;98313.47;5035517;28;20045;-78
2022/04/06 02:34:24;;;;;;;16.35;8.65;;;;;;;3.65;100.00;98311.50;5034230;28;20072;-78
2022/04/06 02:36:51;;;;;;;16.48;8.88;;;;;;;3.69;100.00;98323.75;5035478;28;20046;-78
2022/04/06 02:39:19;;;;;;;17.25;8.98;;;;;;;3.72;100.00;98320.94;5035071;28;20397;-78
2022/04/06 02:41:46;;;;;;;16.13;9.25;;;;;;;3.68;100.00;98315.84;5035443;28;20049;-78
2022/04/06 02:44:15;;;;;;;16.60;9.57;;;;;;;3.56;100.00;98320.84;5050801;28;20053;-77
2022/04/06 02:46:44;;;;;;;17.25;9.85;;;;;;;3.60;100.00;98316.25;5055285;28;20076;-78
2022/04/06 02:49:11;;;;;;;19.58;10.52;;;;;;;3.69;100.00;98315.75;5054105;28;20048;-78
2022/04/06 02:51:39;;;;;;;18.52;10.43;;;;;;;3.66;100.00;98317.69;5054440;28;20079;-78
2022/04/06 02:54:07;;;;;;;19.52;9.55;;;;;;;3.74;100.00;98318.19;5054884;28;20496;-78
2022/04/06 02:56:34;;;;;;;17.88;9.55;;;;;;;3.68;100.00;98315.84;5055135;28;20044;-78
2022/04/06 02:59:02;;;;;;;20.70;9.93;;;;;;;3.71;100.00;98311.19;5054937;28;20510;-78
2022/04/06 03:01:30;;;;;;;23.02;11.48;;;;;;;3.72;100.00;98312.91;5055001;28;20455;-78
2022/04/06 03:03:59;;;;;;;21.85;10.98;;;;;;;3.73;100.00;98317.31;5055012;28;20422;-78
2022/04/06 03:06:26;;;;;;;19.15;9.50;;;;;;;3.80;100.00;98312.53;5054857;28;20045;-78
2022/04/06 03:08:55;;;;;;;16.77;9.40;;;;;;;3.80;100.00;98306.31;5054471;28;20439;-78
2022/04/06 03:11:23;;;;;;;20.15;9.93;;;;;;;3.75;100.00;98310.06;5054912;28;20044;-78
2022/04/06 03:13:51;;;;;;;22.38;10.82;;;;;;;3.75;100.00;98318.09;5054824;28;20119;-78
2022/04/06 03:16:19;;;;;;;19.95;10.15;;;;;;;3.77;100.00;98316.19;5054463;28;20411;-78
2022/04/06 03:18:46;;;;;;;20.35;9.93;;;;;;;3.69;100.00;98313.06;5054663;28;20049;-78
2022/04/06 03:21:15;;;;;;;20.30;10.95;;;;;;;3.71;100.00;98300.50;5054498;28;20045;-78
2022/04/06 03:23:43;;;;;;;24.45;11.38;;;;;;;3.72;100.00;98301.38;5054084;28;20069;-78
2022/04/06 03:26:11;;;;;;;24.75;11.63;;;;;;;3.72;100.00;98307.56;5054528;28;20051;-78
2022/04/06 03:28:39;;;;;;;21.02;11.55;;;;;;;3.83;100.00;98303.47;5054459;28;20047;-77
2022/04/06 03:31:07;;;;;;;21.98;11.30;;;;;;;3.75;100.00;98307.41;5054234;28;20048;-78
2022/04/06 03:33:35;;;;;;;24.15;12.45;;;;;;;3.76;100.00;98303.78;5054285;28;20045;-78
2022/04/06 03:36:03;;;;;;;22.98;11.93;;;;;;;3.73;100.00;98305.78;5053658;28;20048;-78
2022/04/06 03:38:32;;;;;;;23.80;11.73;;;;;;;3.77;100.00;98318.03;5053816;28;20151;-78
2022/04/06 03:41:00;;;;;;;23.90;11.93;;;;;;;3.81;100.00;98316.91;5053485;28;20048;-78
2022/04/06 03:43:28;;;;;;;22.27;11.85;;;;;;;3.84;100.00;98305.19;5053549;28;20450;-78
2022/04/06 03:45:56;;;;;;;23.90;12.43;;;;;;;3.74;100.00;98311.03;5053161;28;20052;-78
2022/04/06 03:48:24;;;;;;;24.95;12.98;;;;;;;3.83;100.00;98320.38;5054072;28;20052;-78
2022/04/06 03:50:51;;;;;;;22.55;12.43;;;;;;;3.80;100.00;98314.31;5054139;28;20099;-78
2022/04/06 03:53:19;;;;;;;23.98;12.68;;;;;;;3.89;100.00;98316.53;5053633;28;20460;-78
2022/04/06 03:55:48;;;;;;;24.17;12.75;;;;;;;3.83;100.00;98325.72;5053763;28;20051;-78
2022/04/06 03:58:15;;;;;;;26.20;13.50;;;;;;;3.81;100.00;98322.25;5053851;28;20115;-78
2022/04/06 04:00:43;;;;;;;24.38;13.65;;;;;;;3.85;100.00;98317.59;5053610;28;20045;-78
2022/04/06 04:03:11;;;;;;;28.52;14.65;;;;;;;3.93;100.00;98315.41;5053690;28;20439;-78
2022/04/06 04:05:38;;;;;;;26.85;13.98;;;;;;;3.87;100.00;98319.25;5052849;28;20053;-78
2022/04/06 04:08:06;;;;;;;26.90;14.25;;;;;;;3.79;100.00;98316.13;5053615;28;20049;-78
2022/04/06 04:10:34;;;;;;;26.23;14.43;;;;;;;3.81;100.00;98326.72;5053591;28;20052;-78
2022/04/06 04:13:03;;;;;;;27.30;15.20;;;;;;;3.83;100.00;98328.38;5053628;28;20049;-78
2022/04/06 04:15:32;;;;;;;27.35;15.50;;;;;;;3.87;100.00;98327.28;5053597;28;20057;-78
2022/04/06 04:17:59;;;;;;;27.63;14.70;;;;;;;3.85;100.00;98333.63;5053135;28;20173;-78
2022/04/06 04:20:27;;;;;;;26.88;15.00;;;;;;;3.98;100.00;98341.84;5052849;28;20063;-78
2022/04/06 04:22:54;;;;;;;29.85;16.23;;;;;;;4.04;100.00;98333.50;5053575;28;20442;-78
2022/04/06 04:25:22;;;;;;;28.25;15.23;;;;;;;4.05;100.00;98329.88;5053383;28;20041;-78
2022/04/06 04:27:49;;;;;;;30.75;16.27;;;;;;;4.06;100.00;98335.16;5053488;28;20053;-78
2022/04/06 04:30:19;;;;;;;27.65;15.98;;;;;;;4.08;100.00;98331.56;5053285;28;20492;-77
2022/04/06 04:32:47;;;;;;;29.42;16.13;;;;;;;4.15;100.00;98330.28;5050129;28;20055;-77
2022/04/06 04:35:14;;;;;;;27.15;16.30;;;;;;;4.23;100.00;98340.56;5049630;28;20092;-77
2022/04/06 04:37:42;;;;;;;28.88;16.52;;;;;;;4.16;100.00;98337.34;5050110;28;20049;-78
2022/04/06 04:40:11;;;;;;;26.98;16.33;;;;;;;4.25;100.00;98335.97;5049587;28;20053;-77
2022/04/06 04:42:38;;;;;;;29.17;16.60;;;;;;;4.26;100.00;98343.06;5049319;28;20037;-77
2022/04/06 04:45:08;;;;;;;28.42;16.48;;;;;;;4.29;100.00;98342.88;5052752;28;20045;-78
2022/04/06 04:47:38;;;;;;;30.38;17.05;;;;;;;4.23;100.00;98340.56;5049741;28;20072;-78
2022/04/06 04:50:06;;;;;;;29.23;17.25;;;;;;;4.46;100.00;98345.47;5049288;28;20106;-78
2022/04/06 04:52:33;;;;;;;33.97;18.98;;;;;;;4.46;100.00;98355.34;5049566;28;20057;-77
2022/04/06 04:55:01;;;;;;;32.70;18.70;;;;;;;4.43;100.00;98356.34;5049581;28;20053;-77
2022/04/06 04:57:28;;;;;;;33.22;19.27;;;;;;;4.51;100.00;98360.44;5048805;28;20052;-77
2022/04/06 04:59:56;;;;;;;29.50;17.52;;;;;;;4.55;100.00;98365.50;5050799;28;20045;-78
2022/04/06 05:02:23;;;;;;;29.05;17.10;;;;;;;4.61;100.00;98369.66;5049468;28;20057;-78
2022/04/06 05:04:52;;;;;;;37.10;20.60;;;;;;;4.69;100.00;98369.22;5049230;28;20041;-77
2022/04/06 05:07:20;;;;;;;36.47;20.65;;;;;;;4.71;100.00;98375.38;5051039;28;20416;-77
2022/04/06 05:09:47;;;;;;;53.17;26.10;;;;;;;4.64;100.00;98386.41;5049417;28;20553;-78
2022/04/06 05:12:15;;;;;;;34.78;18.45;;;;;;;4.37;100.00;98393.28;5048973;28;20052;-77
2022/04/06 05:14:43;;;;;;;26.83;15.63;;;;;;;4.18;100.00;98394.25;5050364;28;20120;-74
2022/04/06 05:17:10;;;;;;;26.08;15.13;;;;;;;4.16;100.00;98399.69;5052293;28;20495;-77
2022/04/06 05:19:38;;;;;;;29.65;17.48;;;;;;;4.21;100.00;98399.41;5052387;28;20044;-77
2022/04/06 05:22:07;;;;;;;34.17;18.17;;;;;;;4.20;100.00;98400.38;5052742;28;20049;-77
2022/04/06 05:24:35;;;;;;;103.45;54.10;;;;;;;4.32;100.00;98391.72;5052673;28;20106;-77
2022/04/06 05:27:03;;;;;;;46.47;26.65;;;;;;;4.26;100.00;98404.53;5052698;28;20518;-77
2022/04/06 05:29:31;;;;;;;30.27;16.70;;;;;;;4.20;100.00;98416.41;5052623;28;20045;-77
2022/04/06 05:31:58;;;;;;;25.63;16.25;;;;;;;4.17;100.00;98429.94;5052703;28;20458;-77
2022/04/06 05:34:26;;;;;;;25.60;14.90;;;;;;;4.16;100.00;98428.19;5052246;28;20107;-77
2022/04/06 05:36:53;;;;;;;27.50;15.95;;;;;;;4.12;100.00;98438.22;5052599;28;20426;-77
2022/04/06 05:39:22;;;;;;;25.70;15.88;;;;;;;4.13;100.00;98447.06;5052601;28;20049;-77
2022/04/06 05:41:50;;;;;;;28.73;16.33;;;;;;;4.05;100.00;98445.66;5052453;28;20048;-78
2022/04/06 05:44:18;;;;;;;27.30;15.35;;;;;;;4.04;100.00;98451.97;5052162;28;20507;-77
2022/04/06 05:46:45;;;;;;;25.52;15.93;;;;;;;4.06;100.00;98457.22;5052552;28;20045;-77
2022/04/06 05:49:13;;;;;;;27.05;15.00;;;;;;;4.03;100.00;98455.56;5052152;28;20399;-77
2022/04/06 05:51:41;;;;;;;26.42;16.35;;;;;;;4.03;100.00;98460.03;5052483;28;20049;-77
2022/04/06 05:54:08;;;;;;;26.52;15.98;;;;;;;4.04;100.00;98459.97;5052598;28;20041;-77
2022/04/06 05:56:37;;;;;;;27.33;15.52;;;;;;;4.04;100.00;98456.44;5052437;28;20064;-77
2022/04/06 05:59:04;;;;;;;28.40;16.20;;;;;;;4.04;100.00;98459.09;5052307;28;20122;-77
2022/04/06 06:01:32;;;;;;;25.48;15.70;;;;;;;4.08;100.00;98452.69;5052209;28;20526;-77
2022/04/06 06:04:00;;;;;;;25.45;14.70;;;;;;;4.10;100.00;98465.94;5052443;28;20106;-78
2022/04/06 06:06:27;;;;;;;23.05;14.07;;;;;;;4.07;100.00;98477.63;5052415;28;20454;-78
2022/04/06 06:08:55;;;;;;;33.92;20.50;;;;;;;4.14;100.00;98479.06;5053653;28;20110;-77
2022/04/06 06:11:22;;;;;;;31.63;19.85;;;;;;;4.18;100.00;98486.00;5056055;28;20051;-77
2022/04/06 06:13:51;;;;;;;27.92;16.30;;;;;;;4.20;100.00;98488.56;5055924;28;20448;-77
2022/04/06 06:16:18;;;;;;;29.95;17.45;;;;;;;4.22;100.00;98491.19;5055568;28;20049;-78
2022/04/06 06:18:46;;;;;;;27.95;15.05;;;;;;;4.29;100.00;98493.47;5055848;28;20482;-78
2022/04/06 06:21:13;;;;;;;27.98;15.90;;;;;;;4.30;100.00;98491.63;5055581;28;20044;-77
2022/04/06 06:23:41;;;;;;;27.23;14.68;;;;;;;4.34;100.00;98490.53;5055718;28;20056;-77
2022/04/06 06:26:09;;;;;;;37.40;18.02;;;;;;;4.35;100.00;98498.47;5055726;28;20049;-77
2022/04/06 06:28:36;;;;;;;32.13;16.85;;;;;;;4.34;100.00;98502.09;5055758;28;20079;-77
2022/04/06 06:31:05;;;;;;;43.35;21.45;;;;;;;4.35;100.00;98501.16;5055195;28;20041;-77
2022/04/06 06:33:32;;;;;;;62.25;27.20;;;;;;;4.37;100.00;98505.56;5055406;28;20044;-78
2022/04/06 06:36:00;;;;;;;41.50;19.88;;;;;;;4.38;100.00;98502.78;5055464;28;20041;-77
2022/04/06 06:38:27;;;;;;;40.70;22.08;;;;;;;4.35;100.00;98505.63;5055428;28;20492;-77
2022/04/06 06:40:55;;;;;;;51.03;29.52;;;;;;;4.40;100.00;98500.03;5055326;28;20052;-77
2022/04/06 06:43:23;;;;;;;42.47;21.48;;;;;;;4.46;100.00;98502.41;5054916;28;20109;-77
2022/04/06 06:45:50;;;;;;;49.85;22.08;;;;;;;4.50;100.00;98509.31;5054959;28;20120;-77
2022/04/06 06:48:19;;;;;;;65.30;23.00;;;;;;;4.44;100.00;98513.16;5055177;28;20052;-77
2022/04/06 06:50:47;;;;;;;73.93;26.15;;;;;;;4.47;100.00;98520.16;5055201;28;20511;-77
2022/04/06 06:53:14;;;;;;;62.80;25.65;;;;;;;4.53;100.00;98517.16;5055322;28;20415;-77
2022/04/06 06:55:41;;;;;;;82.47;32.63;;;;;;;4.55;100.00;98528.66;5055088;28;20049;-77
2022/04/06 06:58:09;;;;;;;89.82;40.95;;;;;;;4.55;100.00;98520.63;5055110;28;20392;-77
2022/04/06 07:00:36;;;;;;;103.03;43.83;;;;;;;4.53;100.00;98516.31;5054744;28;20095;-77
2022/04/06 07:03:04;;;;;;;109.60;40.08;;;;;;;4.48;100.00;98524.56;5052336;28;20053;-77
2022/04/06 07:05:33;;;;;;;115.57;40.30;;;;;;;4.58;100.00;98525.81;5051364;28;20049;-77
2022/04/06 07:08:01;;;;;;;93.47;37.55;;;;;;;4.61;100.00;98528.31;5052540;28;20049;-79
2022/04/06 07:10:29;;;;;;;86.35;35.47;;;;;;;4.67;100.00;98536.97;5051427;28;20080;-80
2022/04/06 07:12:57;;;;;;;75.32;32.33;;;;;;;4.60;100.00;98539.13;5051139;28;20055;-79
2022/04/06 07:15:25;;;;;;;91.72;41.55;;;;;;;4.58;100.00;98530.31;5051046;28;20049;-79
2022/04/06 07:17:53;;;;;;;218.05;94.30;;;;;;;4.61;100.00;98541.69;5051234;28;20052;-80
2022/04/06 07:20:21;;;;;;;225.40;96.38;;;;;;;4.68;100.00;98542.25;5046521;28;20048;-78
2022/04/06 07:22:51;;;;;;;136.35;50.78;;;;;;;4.68;100.00;98542.25;5040184;28;20053;-78
2022/04/06 07:25:19;;;;;;;79.68;32.08;;;;;;;4.68;100.00;98544.03;5039822;28;20465;-78
2022/04/06 07:27:47;;;;;;;30.90;15.40;;;;;;;4.46;100.00;98555.88;5042192;28;20052;-78
2022/04/06 07:30:15;;;;;;;22.00;12.85;;;;;;;4.28;100.00;98555.84;5050619;28;20053;-78
2022/04/06 07:32:43;;;;;;;24.58;12.95;;;;;;;4.21;100.00;98565.13;5050379;28;20029;-78
2022/04/06 07:35:11;;;;;;;22.95;12.60;;;;;;;4.15;100.00;98561.00;5050352;28;20106;-78
2022/04/06 07:37:40;;;;;;;20.30;12.38;;;;;;;4.13;100.00;98567.34;5050236;28;20041;-79
2022/04/06 07:40:12;;;;;;;22.88;12.55;;;;;;;4.12;100.00;98565.59;5050233;28;20056;-79
2022/04/06 07:42:41;;;;;;;21.55;13.23;;;;;;;4.08;100.00;98558.69;5051885;28;20037;-78
2022/04/06 07:45:13;;;;;;;22.50;13.55;;;;;;;4.11;100.00;98559.41;5052402;28;20041;-78
2022/04/06 07:47:42;;;;;;;24.83;14.60;;;;;;;4.09;100.00;98560.41;5053376;28;20355;-79
2022/04/06 07:50:10;;;;;;;25.23;14.55;;;;;;;4.09;100.00;98566.66;5045840;28;20044;-79
2022/04/06 07:52:38;;;;;;;25.95;14.52;;;;;;;4.10;100.00;98578.19;5050543;28;20049;-78
2022/04/06 07:55:08;;;;;;;21.38;13.05;;;;;;;4.05;100.00;98581.94;5049912;28;20053;-79
2022/04/06 07:57:37;;;;;;;27.83;13.40;;;;;;;4.09;100.00;98574.66;5052842;28;20045;-78
2022/04/06 08:00:06;;;;;;;22.30;13.35;;;;;;;4.08;100.00;98580.94;5043866;28;20048;-79
2022/04/06 08:02:34;;;;;;;22.38;13.98;;;;;;;4.10;100.00;98588.88;5050303;28;20052;-79
2022/04/06 08:05:02;;;;;;;24.30;13.45;;;;;;;4.10;100.00;98586.19;5050314;28;20103;-79
2022/04/06 08:07:30;;;;;;;22.65;13.55;;;;;;;4.13;100.00;98594.06;5053260;28;20056;-78
2022/04/06 08:09:57;;;;;;;21.55;13.13;;;;;;;4.12;100.00;98589.66;5049862;28;20570;-79
2022/04/06 08:12:26;;;;;;;23.52;13.70;;;;;;;4.12;100.00;98592.34;5049608;28;20462;-78
2022/04/06 08:14:54;;;;;;;293.08;172.57;;;;;;;4.06;100.00;98597.03;5049378;28;20052;-79
2022/04/06 08:17:23;;;;;;;49.85;36.58;;;;;;;4.09;100.00;98595.16;5050429;28;20053;-78
2022/04/06 08:19:50;;;;;;;31.45;21.45;;;;;;;4.11;100.00;98590.59;5049587;28;20048;-79
2022/04/06 08:22:18;;;;;;;25.35;14.43;;;;;;;4.06;100.00;98599.72;5050059;28;20053;-79
2022/04/06 08:24:46;;;;;;;23.50;14.38;;;;;;;4.10;100.00;98600.44;5050043;28;20491;-79
2022/04/06 08:27:14;;;;;;;22.30;13.80;;;;;;;4.13;100.00;98605.63;5049359;28;20056;-79
2022/04/06 08:29:43;;;;;;;24.73;13.63;;;;;;;4.15;100.00;98600.19;5049675;28;20098;-79
2022/04/06 08:32:10;;;;;;;28.30;16.13;;;;;;;4.16;100.00;98604.59;5049741;28;20123;-80
2022/04/06 08:34:38;;;;;;;23.92;13.95;;;;;;;4.18;100.00;98598.25;5049853;28;20049;-79
2022/04/06 08:37:08;;;;;;;30.52;20.50;;;;;;;4.13;100.00;98605.63;5050077;28;20507;-79
2022/04/06 08:39:35;;;;;;;31.23;21.80;;;;;;;4.26;100.00;98595.16;5049707;28;20076;-79
2022/04/06 08:42:03;;;;;;;28.65;20.23;;;;;;;4.17;100.00;98601.88;5049221;28;20049;-79
2022/04/06 08:44:30;;;;;;;28.35;16.13;;;;;;;4.13;100.00;98605.63;5049331;28;20053;-79
2022/04/06 08:47:05;;;;;;;30.40;16.88;;;;;;;4.22;100.00;98593.59;5049704;28;20049;-78
2022/04/06 08:49:33;;;;;;;34.33;18.08;;;;;;;4.20;100.00;98604.38;5050538;28;20048;-82
2022/04/06 08:52:01;;;;;;;38.08;20.30;;;;;;;4.21;100.00;98589.19;5049811;28;20125;-78
2022/04/06 08:54:29;;;;;;;28.52;15.65;;;;;;;4.24;100.00;98597.06;5049314;28;20431;-80
2022/04/06 08:56:56;;;;;;;43.97;23.30;;;;;;;4.27;100.00;98591.56;5053827;28;20454;-80
2022/04/06 08:59:24;;;;;;;118.72;41.58;;;;;;;4.20;100.00;98595.47;5051466;28;20049;-79
2022/04/06 09:01:52;;;;;;;39.65;17.98;;;;;;;4.13;100.00;98602.97;5049993;28;20049;-78
2022/04/06 09:04:23;;;;;;;54.45;23.55;;;;;;;4.20;100.00;98596.38;5051609;28;20048;-77
2022/04/06 09:06:52;;;;;;;63.95;27.13;;;;;;;4.22;100.00;98598.94;5052675;28;20076;-78
2022/04/06 09:09:24;;;;;;;39.40;19.60;;;;;;;4.20;100.00;98600.81;5051067;28;20037;-78
2022/04/06 09:11:52;;;;;;;31.55;17.70;;;;;;;4.16;100.00;98594.78;5052059;28;20076;-77
2022/04/06 09:14:30;;;;;;;23.50;13.35;;;;;;;4.24;100.00;98589.03;5049581;28;20037;-78
2022/04/06 09:17:02;;;;;;;21.40;12.48;;;;;;;4.19;100.00;98599.97;5053464;28;20111;-77
2022/04/06 09:19:32;;;;;;;22.92;13.52;;;;;;;4.17;100.00;98596.53;5050482;28;20514;-79
2022/04/06 09:21:59;;;;;;;30.77;17.30;;;;;;;4.27;100.00;98593.38;5051359;28;20049;-78
2022/04/06 09:24:28;;;;;;;36.17;19.63;;;;;;;4.34;100.00;98593.00;5048846;28;20124;-78
2022/04/06 09:26:59;;;;;;;27.50;17.50;;;;;;;4.31;100.00;98587.81;5051003;28;20037;-79
2022/04/06 09:29:27;;;;;;;30.35;18.45;;;;;;;4.31;100.00;98586.94;5049060;28;20045;-79
2022/04/06 09:31:56;;;;;;;33.22;20.92;;;;;;;4.41;100.00;98580.16;5051504;28;20411;-79
2022/04/06 09:34:24;;;;;;;30.63;18.13;;;;;;;4.36;100.00;98584.88;5051281;28;20060;-78
2022/04/06 09:36:56;;;;;;;28.48;17.30;;;;;;;4.41;100.00;98582.00;5050818;28;20063;-79
2022/04/06 09:39:46;;;;;;;38.00;24.13;;;;;;;4.41;100.00;98572.13;5050899;28;20134;-79
2022/04/06 09:42:20;;;;;;;28.75;17.38;;;;;;;4.37;100.00;98569.72;5048209;28;20052;-81
2022/04/06 09:47:44;;;;;;;24.75;13.35;;;;;;;4.31;100.00;98558.41;5056290;28;20041;-81
2022/04/06 09:50:16;;;;;;;20.88;12.90;;;;;;;4.32;100.00;98564.59;5057797;28;20055;-80
2022/04/06 09:52:46;;;;;;;21.63;12.95;;;;;;;4.39;100.00;98557.13;5055981;28;20037;-82
2022/04/06 09:55:15;;;;;;;24.42;14.30;;;;;;;4.28;100.00;98557.69;5056074;28;20110;-80
2022/04/06 09:57:45;;;;;;;24.42;13.95;;;;;;;4.27;100.00;98556.81;5056048;28;20049;-79
2022/04/06 10:00:17;;;;;;;27.92;15.27;;;;;;;4.35;100.00;98557.31;5055992;28;20124;-79
2022/04/06 10:02:47;;;;;;;32.22;17.35;;;;;;;4.33;100.00;98552.97;5057545;28;20057;-79
2022/04/06 10:05:15;;;;;;;24.30;14.40;;;;;;;4.31;100.00;98554.84;5056241;28;20103;-82
2022/04/06 10:07:43;;;;;;;21.80;12.73;;;;;;;4.25;100.00;98550.66;5056052;28;20049;-81
2022/04/06 10:10:13;;;;;;;20.40;12.25;;;;;;;4.26;100.00;98557.75;5055668;28;20063;-81
2022/04/06 10:12:42;;;;;;;44.70;28.20;;;;;;;4.34;100.00;98538.66;5056075;28;20052;-80
2022/04/06 10:15:09;;;;;;;34.25;20.63;;;;;;;4.34;100.00;98546.66;5055981;28;20555;-82
2022/04/06 10:17:37;;;;;;;34.15;21.40;;;;;;;4.32;100.00;98551.22;5055853;28;20049;-80
2022/04/06 10:20:12;;;;;;;22.45;14.13;;;;;;;4.20;100.00;98555.38;5055971;28;20049;-82
2022/04/06 10:22:45;;;;;;;23.65;13.82;;;;;;;4.21;100.00;98543.75;5057172;28;20063;-81
2022/04/06 10:25:18;;;;;;;29.98;15.27;;;;;;;4.28;100.00;98549.66;5056022;28;20053;-80
2022/04/06 10:27:49;;;;;;;23.90;13.77;;;;;;;4.31;100.00;98545.03;5056083;28;20041;-82
2022/04/06 10:30:18;;;;;;;24.58;13.43;;;;;;;4.33;100.00;98543.16;5056390;28;20049;-81
2022/04/06 10:32:46;;;;;;;23.52;13.77;;;;;;;4.33;100.00;98545.81;5055553;28;20041;-82
2022/04/06 10:35:25;;;;;;;26.13;15.35;;;;;;;4.37;100.00;98543.00;5055626;28;20049;-80
2022/04/06 10:38:09;;;;;;;27.70;16.50;;;;;;;4.51;100.00;98551.16;5055254;28;20072;-80
2022/04/06 10:41:00;;;;;;;23.40;14.38;;;;;;;4.49;100.00;98547.69;5055202;28;20399;-80
2022/04/06 10:43:57;;;;;;;51.75;37.22;;;;;;;4.54;100.00;98545.63;5056464;28;20053;-79
2022/04/06 10:46:43;;;;;;;49.22;36.35;;;;;;;4.58;100.00;98547.19;4973634;28;20058;-79
2022/04/06 10:49:15;;;;;;;40.85;27.05;;;;;;;4.61;100.00;98541.69;4972863;28;20055;-79
2022/04/06 10:51:45;;;;;;;52.85;35.05;;;;;;;4.67;100.00;98545.88;4974069;28;20053;-80
2022/04/06 10:54:42;;;;;;;31.00;19.50;;;;;;;4.62;100.00;98534.53;4956740;28;20043;-81
2022/04/06 10:57:11;;;;;;;27.25;15.55;;;;;;;4.63;100.00;98528.25;4956171;28;20054;-81
2022/04/06 10:59:39;;;;;;;26.48;15.55;;;;;;;4.72;100.00;98530.44;4970695;28;20248;-80
2022/04/06 11:02:18;;;;;;;25.27;15.25;;;;;;;4.74;100.00;98522.34;4973510;28;20529;-82
2022/04/06 11:04:47;;;;;;;23.48;14.15;;;;;;;4.80;100.00;98532.72;4956020;28;20446;-82
2022/04/06 11:10:06;;;;;;;25.88;15.93;;;;;;;4.89;100.00;98525.97;4973034;28;20638;-81
2022/04/06 11:10:12;;;;;;;23.98;15.05;;;;;;;5.01;100.00;98527.13;4973676;28;20141;-81
2022/04/06 11:12:57;;;;;;;26.35;16.10;;;;;;;4.99;100.00;98529.91;4971246;28;20417;-79
2022/04/06 11:15:34;;;;;;;29.55;17.30;;;;;;;5.05;100.00;98534.91;4971566;28;20061;-80
2022/04/06 11:18:02;;;;;;;27.50;16.30;;;;;;;5.15;100.00;98535.28;4971230;28;20043;-80
2022/04/06 11:20:34;;;;;;;26.15;15.90;;;;;;;5.22;100.00;98531.31;5010151;28;20068;-80
2022/04/06 11:23:02;;;;;;;27.73;16.92;;;;;;;5.28;100.00;98535.44;5054346;28;20044;-80
2022/04/06 11:25:31;;;;;;;28.80;17.80;;;;;;;5.34;100.00;98539.59;5054696;28;20048;-80
2022/04/06 11:28:09;;;;;;;31.95;20.13;;;;;;;5.40;100.00;98551.81;5052525;28;20240;-80
2022/04/06 11:30:38;;;;;;;30.73;18.70;;;;;;;5.43;100.00;98544.44;5050243;28;20041;-78
2022/04/06 11:33:06;;;;;;;30.50;18.02;;;;;;;5.38;100.00;98541.16;5053513;28;20423;-81
2022/04/06 11:35:35;;;;;;;31.48;18.58;;;;;;;5.37;100.00;98542.13;5042873;28;20553;-80